Varmdo — SMXZ — position and weather

sailwx.info

Track history (hours):
 
Tides and Currents Weather Stations Pressure Air Temp Water Temp Dewpoint Dewpoint Depression Visibility Wind Speed Wind Dir Waves Ship Positions

Varmdo

Last reported at 2017-Sep-26 07:29 UTC. Time now 2017-Sep-26 07:37 UTC.
Position N 59°20' E 018°05'.

Length 38 m; draft 2.5 m.

Type: Passenger vessel. MMSI: 265520390.

Date/timePositionNaut miles runAvg speedWind from/ knotsBaromVisibWave heightAir tempDewpointWater temp
2017-Sep-26 07:29N 59°20' E 018°05'0 0.0
2017-Sep-26 06:59N 59°20' E 018°05'0 0.0
2017-Sep-26 06:29N 59°20' E 018°05'0 0.0
2017-Sep-26 05:59N 59°20' E 018°05'0 0.0
2017-Sep-26 05:29N 59°20' E 018°05'0 0.0
2017-Sep-26 04:59N 59°20' E 018°05'0 0.0
2017-Sep-26 04:29N 59°20' E 018°05'0 0.0
2017-Sep-26 03:59N 59°20' E 018°05'0 0.0
2017-Sep-26 03:29N 59°20' E 018°05'0 0.0
2017-Sep-26 02:59N 59°20' E 018°05'0 0.0
2017-Sep-26 02:29N 59°20' E 018°05'0 0.0
2017-Sep-26 01:59N 59°20' E 018°05'0 0.0
2017-Sep-26 01:29N 59°20' E 018°05'0 0.0
2017-Sep-26 00:59N 59°20' E 018°05'0 0.0
2017-Sep-26 00:17N 59°20' E 018°05'0 0.0
2017-Sep-25 23:59N 59°20' E 018°05'0 0.0
2017-Sep-25 23:17N 59°20' E 018°05'0 0.0
2017-Sep-25 22:53N 59°20' E 018°05'0 0.0
2017-Sep-25 22:29N 59°20' E 018°05'0 0.0
2017-Sep-25 21:59N 59°20' E 018°05'0 0.0
2017-Sep-25 21:23N 59°20' E 018°05'0 0.0
2017-Sep-25 20:47N 59°20' E 018°05'0 0.0
2017-Sep-25 20:23N 59°20' E 018°05'0 0.0
2017-Sep-25 19:59N 59°20' E 018°05'0 0.0
2017-Sep-25 19:29N 59°20' E 018°05'0 0.0
2017-Sep-25 18:53N 59°20' E 018°05'0 0.0
2017-Sep-25 18:29N 59°20' E 018°05'0 0.0
2017-Sep-25 17:59N 59°20' E 018°05'0 0.0
2017-Sep-25 17:23N 59°20' E 018°05'0 0.0
2017-Sep-25 16:59N 59°20' E 018°05'0 0.0
2017-Sep-25 16:29N 59°20' E 018°05'0 0.0
2017-Sep-25 15:59N 59°20' E 018°05'0 0.0
2017-Sep-25 15:17N 59°20' E 018°05'0 0.0
2017-Sep-25 14:59N 59°20' E 018°05'0 0.0
2017-Sep-25 13:59N 59°20' E 018°05'0 0.0
2017-Sep-25 13:23N 59°20' E 018°05'0 0.0
2017-Sep-25 12:53N 59°20' E 018°05'0 0.0
2017-Sep-25 12:23N 59°20' E 018°05'0 0.0
2017-Sep-25 11:59N 59°20' E 018°05'0 0.0
2017-Sep-25 11:29N 59°20' E 018°05'0 0.0
2017-Sep-25 10:59N 59°20' E 018°05'0 0.0
2017-Sep-25 10:29N 59°20' E 018°05'0 0.0
2017-Sep-25 09:59N 59°20' E 018°05'0 0.0
2017-Sep-25 09:29N 59°20' E 018°05'0 0.0
2017-Sep-25 08:59N 59°20' E 018°05'0 0.0
2017-Sep-25 08:29N 59°20' E 018°05'0 1.0
2017-Sep-25 08:00N 59°19' E 018°05'610.9
2017-Sep-25 07:30N 59°22' E 018°15'4 8.3
2017-Sep-25 07:00N 59°24' E 018°21'9 7.5
2017-Sep-25 05:44N 59°23' E 018°40'2 8.5
2017-Sep-25 05:30N 59°22' E 018°43'3 6.0
2017-Sep-25 04:57N 59°23' E 018°50'3 7.5
2017-Sep-25 04:29N 59°25' E 018°55'1 2.3
2017-Sep-25 03:59N 59°27' E 018°55'0 0.0
2017-Sep-25 03:29N 59°27' E 018°55'0 0.0
2017-Sep-25 02:53N 59°27' E 018°55'0 0.0
2017-Sep-25 01:35N 59°27' E 018°55'0 0.0
2017-Sep-25 00:47N 59°27' E 018°55'0 0.0
2017-Sep-25 00:29N 59°27' E 018°55'0 0.0
2017-Sep-24 23:59N 59°27' E 018°55'0 0.0
2017-Sep-24 23:29N 59°27' E 018°55'0 0.0
2017-Sep-24 22:59N 59°27' E 018°55'0 0.0
2017-Sep-24 19:14N 59°27' E 018°55'5 7.9
2017-Sep-24 18:40N 59°23' E 018°51'2 6.1
2017-Sep-24 18:16N 59°24' E 018°46'1311.4
2017-Sep-24 17:09N 59°25' E 018°21'2 7.3
2017-Sep-24 16:56N 59°24' E 018°21'4 9.8
2017-Sep-24 16:30N 59°21' E 018°15'510.8
2017-Sep-24 16:00N 59°20' E 018°04'0 0.1
2017-Sep-24 15:28N 59°20' E 018°05'0 0.7
2017-Sep-24 15:00N 59°19' E 018°05'5 9.9
2017-Sep-24 14:30N 59°21' E 018°14'4 8.7
2017-Sep-24 14:00N 59°23' E 018°22'5 6.6
2017-Sep-24 13:19N 59°27' E 018°23'5 5.6
2017-Sep-24 12:29N 59°30' E 018°31'0 0.2
2017-Sep-24 09:21N 59°30' E 018°32'3 5.8
2017-Sep-24 08:49N 59°28' E 018°27'4 8.1
2017-Sep-24 08:23N 59°26' E 018°22'3 6.4
2017-Sep-24 07:59N 59°23' E 018°21'4 7.6
2017-Sep-24 07:30N 59°21' E 018°15'510.8
2017-Sep-24 07:00N 59°20' E 018°04'0 0.1
2017-Sep-24 06:25N 59°20' E 018°05'0 0.0
2017-Sep-24 05:55N 59°20' E 018°05'0 0.0
2017-Sep-24 05:25N 59°20' E 018°05'0 0.0
2017-Sep-24 04:55N 59°20' E 018°05'0 0.0
2017-Sep-24 04:25N 59°20' E 018°05'0 0.0
2017-Sep-24 03:55N 59°20' E 018°05'0 0.0
2017-Sep-24 03:25N 59°20' E 018°05'0 0.0
2017-Sep-24 02:55N 59°20' E 018°05'0 0.0
2017-Sep-24 02:25N 59°20' E 018°05'0 0.0
2017-Sep-24 01:49N 59°20' E 018°05'0 0.0
2017-Sep-24 01:25N 59°20' E 018°05'0 0.0
2017-Sep-24 00:55N 59°20' E 018°05'0 0.0
2017-Sep-24 00:19N 59°20' E 018°05'0 0.0
2017-Sep-23 23:49N 59°20' E 018°05'0 0.0
2017-Sep-23 23:25N 59°20' E 018°05'0 0.0
2017-Sep-23 22:55N 59°20' E 018°05'0 0.0
2017-Sep-23 22:25N 59°20' E 018°05'0 0.0
2017-Sep-23 21:55N 59°20' E 018°05'0 0.0
2017-Sep-23 21:13N 59°20' E 018°05'0 0.0
2017-Sep-23 20:55N 59°20' E 018°05'0 0.0
2017-Sep-23 20:25N 59°20' E 018°05'0 0.0
2017-Sep-23 19:31N 59°20' E 018°05'10 0.2
2017-Sep-22 01:57N 59°24' E 018°21'0 0.0
2017-Sep-22 01:27N 59°24' E 018°21'0 0.0
2017-Sep-22 00:57N 59°24' E 018°21'0 0.0
2017-Sep-22 00:27N 59°24' E 018°21'0 0.0
2017-Sep-21 23:57N 59°24' E 018°21'0 0.0
2017-Sep-21 23:03N 59°24' E 018°21'0 0.0
2017-Sep-21 22:09N 59°24' E 018°21'1 0.3
2017-Sep-21 17:00N 59°23' E 018°24'2 3.3
2017-Sep-21 16:30N 59°23' E 018°21'4 8.5
2017-Sep-21 15:59N 59°21' E 018°13'5 9.9
2017-Sep-21 15:30N 59°20' E 018°04'0 0.1
2017-Sep-21 15:00N 59°20' E 018°05'0 0.0
2017-Sep-21 14:30N 59°20' E 018°05'0 0.0
2017-Sep-21 14:00N 59°20' E 018°05'0 0.0
2017-Sep-21 13:30N 59°20' E 018°05'0 0.0
2017-Sep-21 13:00N 59°20' E 018°05'0 0.0
2017-Sep-21 12:30N 59°20' E 018°05'0 0.0
2017-Sep-21 12:00N 59°20' E 018°05'0 0.0
2017-Sep-21 11:30N 59°20' E 018°05'0 0.0
2017-Sep-21 10:48N 59°20' E 018°05'0 0.0
2017-Sep-21 10:30N 59°20' E 018°05'0 0.3
2017-Sep-21 09:58N 59°20' E 018°05'0 0.0
2017-Sep-21 09:28N 59°20' E 018°05'0 0.0
2017-Sep-21 08:58N 59°20' E 018°05'0 0.0
2017-Sep-21 08:28N 59°20' E 018°05'0 0.0
2017-Sep-21 07:58N 59°20' E 018°05'0 0.0
2017-Sep-21 07:28N 59°20' E 018°05'0 0.0
2017-Sep-21 06:58N 59°20' E 018°05'0 0.0
2017-Sep-21 06:22N 59°20' E 018°05'0 0.0
2017-Sep-21 05:58N 59°20' E 018°05'0 0.0
2017-Sep-21 05:28N 59°20' E 018°05'0 0.0
2017-Sep-21 04:58N 59°20' E 018°05'0 0.0
2017-Sep-21 04:28N 59°20' E 018°05'0 0.0
2017-Sep-21 03:58N 59°20' E 018°05'0 0.0
2017-Sep-21 03:28N 59°20' E 018°05'0 0.0
2017-Sep-21 02:58N 59°20' E 018°05'0 0.0
2017-Sep-21 02:28N 59°20' E 018°05'0 0.0
2017-Sep-21 01:58N 59°20' E 018°05'0 0.0
2017-Sep-21 01:28N 59°20' E 018°05'0 0.0
2017-Sep-21 00:58N 59°20' E 018°05'0 0.0
2017-Sep-21 00:28N 59°20' E 018°05'0 0.0
2017-Sep-20 23:58N 59°20' E 018°05'0 0.0
2017-Sep-20 23:28N 59°20' E 018°05'0 0.0
2017-Sep-20 22:58N 59°20' E 018°05'0 0.0
2017-Sep-20 22:28N 59°20' E 018°05'0 0.0
2017-Sep-20 21:58N 59°20' E 018°05'0 0.0
2017-Sep-20 21:28N 59°20' E 018°05'0 0.0
2017-Sep-20 20:58N 59°20' E 018°05'0 0.0
2017-Sep-20 20:28N 59°20' E 018°05'0 0.0
2017-Sep-20 19:58N 59°20' E 018°05'0 0.0
2017-Sep-20 19:28N 59°20' E 018°05'0 0.0
2017-Sep-20 18:58N 59°20' E 018°05'0 0.0
2017-Sep-20 18:28N 59°20' E 018°05'0 0.0
2017-Sep-20 17:58N 59°20' E 018°05'0 0.0
2017-Sep-20 17:28N 59°20' E 018°05'0 0.0
2017-Sep-20 16:58N 59°20' E 018°05'0 0.0
2017-Sep-20 16:28N 59°20' E 018°05'0 0.0
2017-Sep-20 15:58N 59°20' E 018°05'0 0.0
2017-Sep-20 15:28N 59°20' E 018°05'0 0.0
2017-Sep-20 14:52N 59°20' E 018°05'0 0.0
2017-Sep-20 13:58N 59°20' E 018°05'0 0.0
2017-Sep-20 13:28N 59°20' E 018°05'0 0.0
2017-Sep-20 12:58N 59°20' E 018°05'0 0.0
2017-Sep-20 12:28N 59°20' E 018°05'0 0.0
2017-Sep-20 11:58N 59°20' E 018°05'0 0.0
2017-Sep-20 11:28N 59°20' E 018°05'0 0.0
2017-Sep-20 10:58N 59°20' E 018°05'0 0.0
2017-Sep-20 10:28N 59°20' E 018°05'0 0.0
2017-Sep-20 09:58N 59°20' E 018°05'0 0.0
2017-Sep-20 09:28N 59°20' E 018°05'0 0.0
2017-Sep-20 08:58N 59°20' E 018°05'0 0.0
2017-Sep-20 08:28N 59°20' E 018°05'0 0.0
2017-Sep-20 07:58N 59°20' E 018°05'0 0.0
2017-Sep-20 07:28N 59°20' E 018°05'0 0.0
2017-Sep-20 06:58N 59°20' E 018°05'0 0.0
2017-Sep-20 06:28N 59°20' E 018°05'0 0.0
2017-Sep-20 05:58N 59°20' E 018°05'0 0.0
2017-Sep-20 05:22N 59°20' E 018°05'0 0.0
2017-Sep-20 04:58N 59°20' E 018°05'0 0.0
2017-Sep-20 04:28N 59°20' E 018°05'0 0.0
2017-Sep-20 03:58N 59°20' E 018°05'0 0.0
2017-Sep-20 03:28N 59°20' E 018°05'0 0.0
2017-Sep-20 02:58N 59°20' E 018°05'0 0.0
2017-Sep-20 02:28N 59°20' E 018°05'0 0.0
2017-Sep-20 01:58N 59°20' E 018°05'0 0.0
2017-Sep-20 01:28N 59°20' E 018°05'0 0.0
2017-Sep-20 00:58N 59°20' E 018°05'0 0.0
2017-Sep-20 00:28N 59°20' E 018°05'0 0.0
2017-Sep-19 23:58N 59°20' E 018°05'0 0.0
2017-Sep-19 23:28N 59°20' E 018°05'0 0.0
2017-Sep-19 22:58N 59°20' E 018°05'0 0.0
2017-Sep-19 22:28N 59°20' E 018°05'0 0.0
2017-Sep-19 21:58N 59°20' E 018°05'0 0.0
2017-Sep-19 21:28N 59°20' E 018°05'0 0.0
2017-Sep-19 20:58N 59°20' E 018°05'0 0.0
2017-Sep-19 20:28N 59°20' E 018°05'0 0.0
2017-Sep-19 19:58N 59°20' E 018°05'0 0.0
2017-Sep-19 19:28N 59°20' E 018°05'0 0.0
2017-Sep-19 18:58N 59°20' E 018°05'0 0.0
2017-Sep-19 18:28N 59°20' E 018°05'0 0.0
2017-Sep-19 17:58N 59°20' E 018°05'0 0.0
2017-Sep-19 17:22N 59°20' E 018°05'0 0.0
2017-Sep-19 16:58N 59°20' E 018°05'0 0.0
2017-Sep-19 16:10N 59°20' E 018°05'0 0.0
2017-Sep-19 15:58N 59°20' E 018°05'0 0.0
2017-Sep-19 15:28N 59°20' E 018°05'0 0.0
2017-Sep-19 14:58N 59°20' E 018°05'0 0.0
2017-Sep-19 14:28N 59°20' E 018°05'0 0.0
2017-Sep-19 13:58N 59°20' E 018°05'0 0.0
2017-Sep-19 13:28N 59°20' E 018°05'0 0.0
2017-Sep-19 12:58N 59°20' E 018°05'0 0.0
2017-Sep-19 12:28N 59°20' E 018°05'0 0.0
2017-Sep-19 11:58N 59°20' E 018°05'0 0.0
2017-Sep-19 11:28N 59°20' E 018°05'0 0.0
2017-Sep-19 10:58N 59°20' E 018°05'0 0.0
2017-Sep-19 10:28N 59°20' E 018°05'0 0.0
2017-Sep-19 09:58N 59°20' E 018°05'0 0.0
2017-Sep-19 09:28N 59°20' E 018°05'0 0.0
2017-Sep-19 08:58N 59°20' E 018°05'0 0.0
2017-Sep-19 08:28N 59°20' E 018°05'0 0.0
2017-Sep-19 07:58N 59°20' E 018°05'0 0.0
2017-Sep-19 07:28N 59°20' E 018°05'0 0.0
2017-Sep-19 06:58N 59°20' E 018°05'0 0.0
2017-Sep-19 06:28N 59°20' E 018°05'0 0.0
2017-Sep-19 05:58N 59°20' E 018°05'0 0.0
2017-Sep-19 05:28N 59°20' E 018°05'0 0.0
2017-Sep-19 04:58N 59°20' E 018°05'0 0.0
2017-Sep-19 04:28N 59°20' E 018°05'0 0.0
2017-Sep-19 03:58N 59°20' E 018°05'0 0.0
2017-Sep-19 03:28N 59°20' E 018°05'0 0.0
2017-Sep-19 02:58N 59°20' E 018°05'0 0.0
2017-Sep-19 02:28N 59°20' E 018°05'0 0.0
2017-Sep-19 01:58N 59°20' E 018°05'0 0.0
2017-Sep-19 01:28N 59°20' E 018°05'0 0.0
2017-Sep-19 00:58N 59°20' E 018°05'0 0.0
2017-Sep-19 00:28N 59°20' E 018°05'0 0.0
2017-Sep-18 23:58N 59°20' E 018°05'0 0.0
2017-Sep-18 23:28N 59°20' E 018°05'0 0.0
2017-Sep-18 22:58N 59°20' E 018°05'0 0.0
2017-Sep-18 22:28N 59°20' E 018°05'0 0.0
2017-Sep-18 21:58N 59°20' E 018°05'0 0.0
2017-Sep-18 21:28N 59°20' E 018°05'0 0.0
2017-Sep-18 20:58N 59°20' E 018°05'0 0.0
2017-Sep-18 20:28N 59°20' E 018°05'0 0.0
2017-Sep-18 19:58N 59°20' E 018°05'0 0.0
2017-Sep-18 19:28N 59°20' E 018°05'0 0.0
2017-Sep-18 18:52N 59°20' E 018°05'0 0.0
2017-Sep-18 18:28N 59°20' E 018°05'0 0.0
2017-Sep-18 17:58N 59°20' E 018°05'0 0.0
2017-Sep-18 17:28N 59°20' E 018°05'0 0.0
2017-Sep-18 16:58N 59°20' E 018°05'0 0.0
2017-Sep-18 16:28N 59°20' E 018°05'0 0.0
2017-Sep-18 15:52N 59°20' E 018°05'0 0.0
2017-Sep-18 15:22N 59°20' E 018°05'0 0.0
2017-Sep-18 14:52N 59°20' E 018°05'0 0.0
2017-Sep-18 14:28N 59°20' E 018°05'0 0.0
2017-Sep-18 13:58N 59°20' E 018°05'0 0.0
2017-Sep-18 13:28N 59°20' E 018°05'0 0.0
2017-Sep-18 12:58N 59°20' E 018°05'0 0.0
2017-Sep-18 12:28N 59°20' E 018°05'0 0.0
2017-Sep-18 11:58N 59°20' E 018°05'0 0.0
2017-Sep-18 11:28N 59°20' E 018°05'0 0.0
2017-Sep-18 10:58N 59°20' E 018°05'0 0.0
2017-Sep-18 10:28N 59°20' E 018°05'0 0.0
2017-Sep-18 09:58N 59°20' E 018°05'0 0.0
2017-Sep-18 09:28N 59°20' E 018°05'0 0.0
2017-Sep-18 08:58N 59°20' E 018°05'0 0.0
2017-Sep-18 08:28N 59°20' E 018°05'0 0.0
2017-Sep-18 07:58N 59°20' E 018°05'0 0.0
2017-Sep-18 07:28N 59°20' E 018°05'0 0.0
2017-Sep-18 06:58N 59°20' E 018°05'0 0.0
2017-Sep-18 06:28N 59°20' E 018°05'0 0.0
2017-Sep-18 05:58N 59°20' E 018°05'0 0.0
2017-Sep-18 05:28N 59°20' E 018°05'0 0.0
2017-Sep-18 04:58N 59°20' E 018°05'0 0.0
2017-Sep-18 04:28N 59°20' E 018°05'0 0.0
2017-Sep-18 03:58N 59°20' E 018°05'0 0.0
2017-Sep-18 03:28N 59°20' E 018°05'0 0.0
2017-Sep-18 02:58N 59°20' E 018°05'0 0.0
2017-Sep-18 02:28N 59°20' E 018°05'0 0.0
2017-Sep-18 01:58N 59°20' E 018°05'0 0.0
2017-Sep-18 01:28N 59°20' E 018°05'0 0.0
2017-Sep-18 00:58N 59°20' E 018°05'0 0.0
2017-Sep-18 00:22N 59°20' E 018°05'0 0.0
2017-Sep-17 23:58N 59°20' E 018°05'0 0.0
2017-Sep-17 23:28N 59°20' E 018°05'0 0.0
2017-Sep-17 22:58N 59°20' E 018°05'0 0.0
2017-Sep-17 22:28N 59°20' E 018°05'0 0.0
2017-Sep-17 21:58N 59°20' E 018°05'0 0.0
2017-Sep-17 21:28N 59°20' E 018°05'0 0.0
2017-Sep-17 20:58N 59°20' E 018°05'0 0.0
2017-Sep-17 20:28N 59°20' E 018°05'0 0.0
2017-Sep-17 19:58N 59°20' E 018°05'0 0.0
2017-Sep-17 19:28N 59°20' E 018°05'0 0.0
2017-Sep-17 18:58N 59°20' E 018°05'0 0.0
2017-Sep-17 18:28N 59°20' E 018°05'0 0.0
2017-Sep-17 17:58N 59°20' E 018°05'0 0.0
2017-Sep-17 17:28N 59°20' E 018°05'0 0.0
2017-Sep-17 16:58N 59°20' E 018°05'0 0.0
2017-Sep-17 16:28N 59°20' E 018°05'0 0.0
2017-Sep-17 15:58N 59°20' E 018°05'0 0.0
2017-Sep-17 15:22N 59°20' E 018°05'0 0.0
2017-Sep-17 14:52N 59°20' E 018°05'0 0.0
2017-Sep-17 14:28N 59°20' E 018°05'0 0.0
2017-Sep-17 13:58N 59°20' E 018°05'0 0.0
2017-Sep-17 13:28N 59°20' E 018°05'0 0.0
2017-Sep-17 12:58N 59°20' E 018°05'0 0.0
2017-Sep-17 12:28N 59°20' E 018°05'0 0.0
2017-Sep-17 11:58N 59°20' E 018°05'0 0.0
2017-Sep-17 11:28N 59°20' E 018°05'0 0.0
2017-Sep-17 10:58N 59°20' E 018°05'0 0.0
2017-Sep-17 10:28N 59°20' E 018°05'0 0.0
2017-Sep-17 09:58N 59°20' E 018°05'0 0.0
2017-Sep-17 09:28N 59°20' E 018°05'0 0.0
2017-Sep-17 08:58N 59°20' E 018°05'0 0.0
2017-Sep-17 08:28N 59°20' E 018°05'0 0.0
2017-Sep-17 07:58N 59°20' E 018°05'0 0.0
2017-Sep-17 07:28N 59°20' E 018°05'0 0.0
2017-Sep-17 06:58N 59°20' E 018°05'0 0.0
2017-Sep-17 06:28N 59°20' E 018°05'0 0.0
2017-Sep-17 05:58N 59°20' E 018°05'0 0.0
2017-Sep-17 05:28N 59°20' E 018°05'0 0.0
2017-Sep-17 04:52N 59°20' E 018°05'0 0.0
2017-Sep-17 04:28N 59°20' E 018°05'0 0.0
2017-Sep-17 03:58N 59°20' E 018°05'0 0.0
2017-Sep-17 03:28N 59°20' E 018°05'0 0.0
2017-Sep-17 02:58N 59°20' E 018°05'0 0.0
2017-Sep-17 02:28N 59°20' E 018°05'0 0.0
2017-Sep-17 01:58N 59°20' E 018°05'0 0.0
2017-Sep-17 01:28N 59°20' E 018°05'0 0.0
2017-Sep-17 00:52N 59°20' E 018°05'0 0.0
2017-Sep-17 00:28N 59°20' E 018°05'0 0.0
2017-Sep-16 23:58N 59°20' E 018°05'0 0.0
2017-Sep-16 23:28N 59°20' E 018°05'0 0.0
2017-Sep-16 22:58N 59°20' E 018°05'0 0.0
2017-Sep-16 22:28N 59°20' E 018°05'0 0.0
2017-Sep-16 21:58N 59°20' E 018°05'0 0.0
2017-Sep-16 21:28N 59°20' E 018°05'0 0.0
2017-Sep-16 20:58N 59°20' E 018°05'0 0.0
2017-Sep-16 20:28N 59°20' E 018°05'0 0.0
2017-Sep-16 19:58N 59°20' E 018°05'0 0.0
2017-Sep-16 19:28N 59°20' E 018°05'0 0.0
2017-Sep-16 18:58N 59°20' E 018°05'0 0.0
2017-Sep-16 18:28N 59°20' E 018°05'0 0.0
2017-Sep-16 17:58N 59°20' E 018°05'0 0.0
2017-Sep-16 17:28N 59°20' E 018°05'0 0.0
2017-Sep-16 16:58N 59°20' E 018°05'0 0.6
2017-Sep-16 16:30N 59°20' E 018°05'611.1
2017-Sep-16 16:00N 59°22' E 018°16'4 0.5
2017-Sep-16 08:05N 59°24' E 018°21'0 0.7
2017-Sep-16 08:00N 59°24' E 018°21'5 9.1
2017-Sep-16 07:30N 59°21' E 018°15'  
Track history (hours):
 
Tides and Currents Weather Stations Pressure Air Temp Water Temp Dewpoint Dewpoint Depression Visibility Wind Speed Wind Dir Waves Ship Positions

Varmdo

Last reported at 2017-Sep-26 07:29 UTC. Time now 2017-Sep-26 07:37 UTC.
Position N 59°20' E 018°05'.

Length 38 m; draft 2.5 m.

Type: Passenger vessel. MMSI: 265520390.

Date/timePositionNaut miles runAvg speedWind from/ knotsBaromVisibWave heightAir tempDewpointWater temp
2017-Sep-26 07:29N 59°20' E 018°05'0 0.0
2017-Sep-26 06:59N 59°20' E 018°05'0 0.0
2017-Sep-26 06:29N 59°20' E 018°05'0 0.0
2017-Sep-26 05:59N 59°20' E 018°05'0 0.0
2017-Sep-26 05:29N 59°20' E 018°05'0 0.0
2017-Sep-26 04:59N 59°20' E 018°05'0 0.0
2017-Sep-26 04:29N 59°20' E 018°05'0 0.0
2017-Sep-26 03:59N 59°20' E 018°05'0 0.0
2017-Sep-26 03:29N 59°20' E 018°05'0 0.0
2017-Sep-26 02:59N 59°20' E 018°05'0 0.0
2017-Sep-26 02:29N 59°20' E 018°05'0 0.0
2017-Sep-26 01:59N 59°20' E 018°05'0 0.0
2017-Sep-26 01:29N 59°20' E 018°05'0 0.0
2017-Sep-26 00:59N 59°20' E 018°05'0 0.0
2017-Sep-26 00:17N 59°20' E 018°05'0 0.0
2017-Sep-25 23:59N 59°20' E 018°05'0 0.0
2017-Sep-25 23:17N 59°20' E 018°05'0 0.0
2017-Sep-25 22:53N 59°20' E 018°05'0 0.0
2017-Sep-25 22:29N 59°20' E 018°05'0 0.0
2017-Sep-25 21:59N 59°20' E 018°05'0 0.0
2017-Sep-25 21:23N 59°20' E 018°05'0 0.0
2017-Sep-25 20:47N 59°20' E 018°05'0 0.0
2017-Sep-25 20:23N 59°20' E 018°05'0 0.0
2017-Sep-25 19:59N 59°20' E 018°05'0 0.0
2017-Sep-25 19:29N 59°20' E 018°05'0 0.0
2017-Sep-25 18:53N 59°20' E 018°05'0 0.0
2017-Sep-25 18:29N 59°20' E 018°05'0 0.0
2017-Sep-25 17:59N 59°20' E 018°05'0 0.0
2017-Sep-25 17:23N 59°20' E 018°05'0 0.0
2017-Sep-25 16:59N 59°20' E 018°05'0 0.0
2017-Sep-25 16:29N 59°20' E 018°05'0 0.0
2017-Sep-25 15:59N 59°20' E 018°05'0 0.0
2017-Sep-25 15:17N 59°20' E 018°05'0 0.0
2017-Sep-25 14:59N 59°20' E 018°05'0 0.0
2017-Sep-25 13:59N 59°20' E 018°05'0 0.0
2017-Sep-25 13:23N 59°20' E 018°05'0 0.0
2017-Sep-25 12:53N 59°20' E 018°05'0 0.0
2017-Sep-25 12:23N 59°20' E 018°05'0 0.0
2017-Sep-25 11:59N 59°20' E 018°05'0 0.0
2017-Sep-25 11:29N 59°20' E 018°05'0 0.0
2017-Sep-25 10:59N 59°20' E 018°05'0 0.0
2017-Sep-25 10:29N 59°20' E 018°05'0 0.0
2017-Sep-25 09:59N 59°20' E 018°05'0 0.0
2017-Sep-25 09:29N 59°20' E 018°05'0 0.0
2017-Sep-25 08:59N 59°20' E 018°05'0 0.0
2017-Sep-25 08:29N 59°20' E 018°05'0 1.0
2017-Sep-25 08:00N 59°19' E 018°05'610.9
2017-Sep-25 07:30N 59°22' E 018°15'4 8.3
2017-Sep-25 07:00N 59°24' E 018°21'9 7.5
2017-Sep-25 05:44N 59°23' E 018°40'2 8.5
2017-Sep-25 05:30N 59°22' E 018°43'3 6.0
2017-Sep-25 04:57N 59°23' E 018°50'3 7.5
2017-Sep-25 04:29N 59°25' E 018°55'1 2.3
2017-Sep-25 03:59N 59°27' E 018°55'0 0.0
2017-Sep-25 03:29N 59°27' E 018°55'0 0.0
2017-Sep-25 02:53N 59°27' E 018°55'0 0.0
2017-Sep-25 01:35N 59°27' E 018°55'0 0.0
2017-Sep-25 00:47N 59°27' E 018°55'0 0.0
2017-Sep-25 00:29N 59°27' E 018°55'0 0.0
2017-Sep-24 23:59N 59°27' E 018°55'0 0.0
2017-Sep-24 23:29N 59°27' E 018°55'0 0.0
2017-Sep-24 22:59N 59°27' E 018°55'0 0.0
2017-Sep-24 19:14N 59°27' E 018°55'5 7.9
2017-Sep-24 18:40N 59°23' E 018°51'2 6.1
2017-Sep-24 18:16N 59°24' E 018°46'1311.4
2017-Sep-24 17:09N 59°25' E 018°21'2 7.3
2017-Sep-24 16:56N 59°24' E 018°21'4 9.8
2017-Sep-24 16:30N 59°21' E 018°15'510.8
2017-Sep-24 16:00N 59°20' E 018°04'0 0.1
2017-Sep-24 15:28N 59°20' E 018°05'0 0.7
2017-Sep-24 15:00N 59°19' E 018°05'5 9.9
2017-Sep-24 14:30N 59°21' E 018°14'4 8.7
2017-Sep-24 14:00N 59°23' E 018°22'5 6.6
2017-Sep-24 13:19N 59°27' E 018°23'5 5.6
2017-Sep-24 12:29N 59°30' E 018°31'0 0.2
2017-Sep-24 09:21N 59°30' E 018°32'3 5.8
2017-Sep-24 08:49N 59°28' E 018°27'4 8.1
2017-Sep-24 08:23N 59°26' E 018°22'3 6.4
2017-Sep-24 07:59N 59°23' E 018°21'4 7.6
2017-Sep-24 07:30N 59°21' E 018°15'510.8
2017-Sep-24 07:00N 59°20' E 018°04'0 0.1
2017-Sep-24 06:25N 59°20' E 018°05'0 0.0
2017-Sep-24 05:55N 59°20' E 018°05'0 0.0
2017-Sep-24 05:25N 59°20' E 018°05'0 0.0
2017-Sep-24 04:55N 59°20' E 018°05'0 0.0
2017-Sep-24 04:25N 59°20' E 018°05'0 0.0
2017-Sep-24 03:55N 59°20' E 018°05'0 0.0
2017-Sep-24 03:25N 59°20' E 018°05'0 0.0
2017-Sep-24 02:55N 59°20' E 018°05'0 0.0
2017-Sep-24 02:25N 59°20' E 018°05'0 0.0
2017-Sep-24 01:49N 59°20' E 018°05'0 0.0
2017-Sep-24 01:25N 59°20' E 018°05'0 0.0
2017-Sep-24 00:55N 59°20' E 018°05'0 0.0
2017-Sep-24 00:19N 59°20' E 018°05'0 0.0
2017-Sep-23 23:49N 59°20' E 018°05'0 0.0
2017-Sep-23 23:25N 59°20' E 018°05'0 0.0
2017-Sep-23 22:55N 59°20' E 018°05'0 0.0
2017-Sep-23 22:25N 59°20' E 018°05'0 0.0
2017-Sep-23 21:55N 59°20' E 018°05'0 0.0
2017-Sep-23 21:13N 59°20' E 018°05'0 0.0
2017-Sep-23 20:55N 59°20' E 018°05'0 0.0
2017-Sep-23 20:25N 59°20' E 018°05'0 0.0
2017-Sep-23 19:31N 59°20' E 018°05'10 0.2
2017-Sep-22 01:57N 59°24' E 018°21'0 0.0
2017-Sep-22 01:27N 59°24' E 018°21'0 0.0
2017-Sep-22 00:57N 59°24' E 018°21'0 0.0
2017-Sep-22 00:27N 59°24' E 018°21'0 0.0
2017-Sep-21 23:57N 59°24' E 018°21'0 0.0
2017-Sep-21 23:03N 59°24' E 018°21'0 0.0
2017-Sep-21 22:09N 59°24' E 018°21'1 0.3
2017-Sep-21 17:00N 59°23' E 018°24'2 3.3
2017-Sep-21 16:30N 59°23' E 018°21'4 8.5
2017-Sep-21 15:59N 59°21' E 018°13'5 9.9
2017-Sep-21 15:30N 59°20' E 018°04'0 0.1
2017-Sep-21 15:00N 59°20' E 018°05'0 0.0
2017-Sep-21 14:30N 59°20' E 018°05'0 0.0
2017-Sep-21 14:00N 59°20' E 018°05'0 0.0
2017-Sep-21 13:30N 59°20' E 018°05'0 0.0
2017-Sep-21 13:00N 59°20' E 018°05'0 0.0
2017-Sep-21 12:30N 59°20' E 018°05'0 0.0
2017-Sep-21 12:00N 59°20' E 018°05'0 0.0
2017-Sep-21 11:30N 59°20' E 018°05'0 0.0
2017-Sep-21 10:48N 59°20' E 018°05'0 0.0
2017-Sep-21 10:30N 59°20' E 018°05'0 0.3
2017-Sep-21 09:58N 59°20' E 018°05'0 0.0
2017-Sep-21 09:28N 59°20' E 018°05'0 0.0
2017-Sep-21 08:58N 59°20' E 018°05'0 0.0
2017-Sep-21 08:28N 59°20' E 018°05'0 0.0
2017-Sep-21 07:58N 59°20' E 018°05'0 0.0
2017-Sep-21 07:28N 59°20' E 018°05'0 0.0
2017-Sep-21 06:58N 59°20' E 018°05'0 0.0
2017-Sep-21 06:22N 59°20' E 018°05'0 0.0
2017-Sep-21 05:58N 59°20' E 018°05'0 0.0
2017-Sep-21 05:28N 59°20' E 018°05'0 0.0
2017-Sep-21 04:58N 59°20' E 018°05'0 0.0
2017-Sep-21 04:28N 59°20' E 018°05'0 0.0
2017-Sep-21 03:58N 59°20' E 018°05'0 0.0
2017-Sep-21 03:28N 59°20' E 018°05'0 0.0
2017-Sep-21 02:58N 59°20' E 018°05'0 0.0
2017-Sep-21 02:28N 59°20' E 018°05'0 0.0
2017-Sep-21 01:58N 59°20' E 018°05'0 0.0
2017-Sep-21 01:28N 59°20' E 018°05'0 0.0
2017-Sep-21 00:58N 59°20' E 018°05'0 0.0
2017-Sep-21 00:28N 59°20' E 018°05'0 0.0
2017-Sep-20 23:58N 59°20' E 018°05'0 0.0
2017-Sep-20 23:28N 59°20' E 018°05'0 0.0
2017-Sep-20 22:58N 59°20' E 018°05'0 0.0
2017-Sep-20 22:28N 59°20' E 018°05'0 0.0
2017-Sep-20 21:58N 59°20' E 018°05'0 0.0
2017-Sep-20 21:28N 59°20' E 018°05'0 0.0
2017-Sep-20 20:58N 59°20' E 018°05'0 0.0
2017-Sep-20 20:28N 59°20' E 018°05'0 0.0
2017-Sep-20 19:58N 59°20' E 018°05'0 0.0
2017-Sep-20 19:28N 59°20' E 018°05'0 0.0
2017-Sep-20 18:58N 59°20' E 018°05'0 0.0
2017-Sep-20 18:28N 59°20' E 018°05'0 0.0
2017-Sep-20 17:58N 59°20' E 018°05'0 0.0
2017-Sep-20 17:28N 59°20' E 018°05'0 0.0
2017-Sep-20 16:58N 59°20' E 018°05'0 0.0
2017-Sep-20 16:28N 59°20' E 018°05'0 0.0
2017-Sep-20 15:58N 59°20' E 018°05'0 0.0
2017-Sep-20 15:28N 59°20' E 018°05'0 0.0
2017-Sep-20 14:52N 59°20' E 018°05'0 0.0
2017-Sep-20 13:58N 59°20' E 018°05'0 0.0
2017-Sep-20 13:28N 59°20' E 018°05'0 0.0
2017-Sep-20 12:58N 59°20' E 018°05'0 0.0
2017-Sep-20 12:28N 59°20' E 018°05'0 0.0
2017-Sep-20 11:58N 59°20' E 018°05'0 0.0
2017-Sep-20 11:28N 59°20' E 018°05'0 0.0
2017-Sep-20 10:58N 59°20' E 018°05'0 0.0
2017-Sep-20 10:28N 59°20' E 018°05'0 0.0
2017-Sep-20 09:58N 59°20' E 018°05'0 0.0
2017-Sep-20 09:28N 59°20' E 018°05'0 0.0
2017-Sep-20 08:58N 59°20' E 018°05'0 0.0
2017-Sep-20 08:28N 59°20' E 018°05'0 0.0
2017-Sep-20 07:58N 59°20' E 018°05'0 0.0
2017-Sep-20 07:28N 59°20' E 018°05'0 0.0
2017-Sep-20 06:58N 59°20' E 018°05'0 0.0
2017-Sep-20 06:28N 59°20' E 018°05'0 0.0
2017-Sep-20 05:58N 59°20' E 018°05'0 0.0
2017-Sep-20 05:22N 59°20' E 018°05'0 0.0
2017-Sep-20 04:58N 59°20' E 018°05'0 0.0
2017-Sep-20 04:28N 59°20' E 018°05'0 0.0
2017-Sep-20 03:58N 59°20' E 018°05'0 0.0
2017-Sep-20 03:28N 59°20' E 018°05'0 0.0
2017-Sep-20 02:58N 59°20' E 018°05'0 0.0
2017-Sep-20 02:28N 59°20' E 018°05'0 0.0
2017-Sep-20 01:58N 59°20' E 018°05'0 0.0
2017-Sep-20 01:28N 59°20' E 018°05'0 0.0
2017-Sep-20 00:58N 59°20' E 018°05'0 0.0
2017-Sep-20 00:28N 59°20' E 018°05'0 0.0
2017-Sep-19 23:58N 59°20' E 018°05'0 0.0
2017-Sep-19 23:28N 59°20' E 018°05'0 0.0
2017-Sep-19 22:58N 59°20' E 018°05'0 0.0
2017-Sep-19 22:28N 59°20' E 018°05'0 0.0
2017-Sep-19 21:58N 59°20' E 018°05'0 0.0
2017-Sep-19 21:28N 59°20' E 018°05'0 0.0
2017-Sep-19 20:58N 59°20' E 018°05'0 0.0
2017-Sep-19 20:28N 59°20' E 018°05'0 0.0
2017-Sep-19 19:58N 59°20' E 018°05'0 0.0
2017-Sep-19 19:28N 59°20' E 018°05'0 0.0
2017-Sep-19 18:58N 59°20' E 018°05'0 0.0
2017-Sep-19 18:28N 59°20' E 018°05'0 0.0
2017-Sep-19 17:58N 59°20' E 018°05'0 0.0
2017-Sep-19 17:22N 59°20' E 018°05'0 0.0
2017-Sep-19 16:58N 59°20' E 018°05'0 0.0
2017-Sep-19 16:10N 59°20' E 018°05'0 0.0
2017-Sep-19 15:58N 59°20' E 018°05'0 0.0
2017-Sep-19 15:28N 59°20' E 018°05'0 0.0
2017-Sep-19 14:58N 59°20' E 018°05'0 0.0
2017-Sep-19 14:28N 59°20' E 018°05'0 0.0
2017-Sep-19 13:58N 59°20' E 018°05'0 0.0
2017-Sep-19 13:28N 59°20' E 018°05'0 0.0
2017-Sep-19 12:58N 59°20' E 018°05'0 0.0
2017-Sep-19 12:28N 59°20' E 018°05'0 0.0
2017-Sep-19 11:58N 59°20' E 018°05'0 0.0
2017-Sep-19 11:28N 59°20' E 018°05'0 0.0
2017-Sep-19 10:58N 59°20' E 018°05'0 0.0
2017-Sep-19 10:28N 59°20' E 018°05'0 0.0
2017-Sep-19 09:58N 59°20' E 018°05'0 0.0
2017-Sep-19 09:28N 59°20' E 018°05'0 0.0
2017-Sep-19 08:58N 59°20' E 018°05'0 0.0
2017-Sep-19 08:28N 59°20' E 018°05'0 0.0
2017-Sep-19 07:58N 59°20' E 018°05'0 0.0
2017-Sep-19 07:28N 59°20' E 018°05'0 0.0
2017-Sep-19 06:58N 59°20' E 018°05'0 0.0
2017-Sep-19 06:28N 59°20' E 018°05'0 0.0
2017-Sep-19 05:58N 59°20' E 018°05'0 0.0
2017-Sep-19 05:28N 59°20' E 018°05'0 0.0
2017-Sep-19 04:58N 59°20' E 018°05'0 0.0
2017-Sep-19 04:28N 59°20' E 018°05'0 0.0
2017-Sep-19 03:58N 59°20' E 018°05'0 0.0
2017-Sep-19 03:28N 59°20' E 018°05'0 0.0
2017-Sep-19 02:58N 59°20' E 018°05'0 0.0
2017-Sep-19 02:28N 59°20' E 018°05'0 0.0
2017-Sep-19 01:58N 59°20' E 018°05'0 0.0
2017-Sep-19 01:28N 59°20' E 018°05'0 0.0
2017-Sep-19 00:58N 59°20' E 018°05'0 0.0
2017-Sep-19 00:28N 59°20' E 018°05'0 0.0
2017-Sep-18 23:58N 59°20' E 018°05'0 0.0
2017-Sep-18 23:28N 59°20' E 018°05'0 0.0
2017-Sep-18 22:58N 59°20' E 018°05'0 0.0
2017-Sep-18 22:28N 59°20' E 018°05'0 0.0
2017-Sep-18 21:58N 59°20' E 018°05'0 0.0
2017-Sep-18 21:28N 59°20' E 018°05'0 0.0
2017-Sep-18 20:58N 59°20' E 018°05'0 0.0
2017-Sep-18 20:28N 59°20' E 018°05'0 0.0
2017-Sep-18 19:58N 59°20' E 018°05'0 0.0
2017-Sep-18 19:28N 59°20' E 018°05'0 0.0
2017-Sep-18 18:52N 59°20' E 018°05'0 0.0
2017-Sep-18 18:28N 59°20' E 018°05'0 0.0
2017-Sep-18 17:58N 59°20' E 018°05'0 0.0
2017-Sep-18 17:28N 59°20' E 018°05'0 0.0
2017-Sep-18 16:58N 59°20' E 018°05'0 0.0
2017-Sep-18 16:28N 59°20' E 018°05'0 0.0
2017-Sep-18 15:52N 59°20' E 018°05'0 0.0
2017-Sep-18 15:22N 59°20' E 018°05'0 0.0
2017-Sep-18 14:52N 59°20' E 018°05'0 0.0
2017-Sep-18 14:28N 59°20' E 018°05'0 0.0
2017-Sep-18 13:58N 59°20' E 018°05'0 0.0
2017-Sep-18 13:28N 59°20' E 018°05'0 0.0
2017-Sep-18 12:58N 59°20' E 018°05'0 0.0
2017-Sep-18 12:28N 59°20' E 018°05'0 0.0
2017-Sep-18 11:58N 59°20' E 018°05'0 0.0
2017-Sep-18 11:28N 59°20' E 018°05'0 0.0
2017-Sep-18 10:58N 59°20' E 018°05'0 0.0
2017-Sep-18 10:28N 59°20' E 018°05'0 0.0
2017-Sep-18 09:58N 59°20' E 018°05'0 0.0
2017-Sep-18 09:28N 59°20' E 018°05'0 0.0
2017-Sep-18 08:58N 59°20' E 018°05'0 0.0
2017-Sep-18 08:28N 59°20' E 018°05'0 0.0
2017-Sep-18 07:58N 59°20' E 018°05'0 0.0
2017-Sep-18 07:28N 59°20' E 018°05'0 0.0
2017-Sep-18 06:58N 59°20' E 018°05'0 0.0
2017-Sep-18 06:28N 59°20' E 018°05'0 0.0
2017-Sep-18 05:58N 59°20' E 018°05'0 0.0
2017-Sep-18 05:28N 59°20' E 018°05'0 0.0
2017-Sep-18 04:58N 59°20' E 018°05'0 0.0
2017-Sep-18 04:28N 59°20' E 018°05'0 0.0
2017-Sep-18 03:58N 59°20' E 018°05'0 0.0
2017-Sep-18 03:28N 59°20' E 018°05'0 0.0
2017-Sep-18 02:58N 59°20' E 018°05'0 0.0
2017-Sep-18 02:28N 59°20' E 018°05'0 0.0
2017-Sep-18 01:58N 59°20' E 018°05'0 0.0
2017-Sep-18 01:28N 59°20' E 018°05'0 0.0
2017-Sep-18 00:58N 59°20' E 018°05'0 0.0
2017-Sep-18 00:22N 59°20' E 018°05'0 0.0
2017-Sep-17 23:58N 59°20' E 018°05'0 0.0
2017-Sep-17 23:28N 59°20' E 018°05'0 0.0
2017-Sep-17 22:58N 59°20' E 018°05'0 0.0
2017-Sep-17 22:28N 59°20' E 018°05'0 0.0
2017-Sep-17 21:58N 59°20' E 018°05'0 0.0
2017-Sep-17 21:28N 59°20' E 018°05'0 0.0
2017-Sep-17 20:58N 59°20' E 018°05'0 0.0
2017-Sep-17 20:28N 59°20' E 018°05'0 0.0
2017-Sep-17 19:58N 59°20' E 018°05'0 0.0
2017-Sep-17 19:28N 59°20' E 018°05'0 0.0
2017-Sep-17 18:58N 59°20' E 018°05'0 0.0
2017-Sep-17 18:28N 59°20' E 018°05'0 0.0
2017-Sep-17 17:58N 59°20' E 018°05'0 0.0
2017-Sep-17 17:28N 59°20' E 018°05'0 0.0
2017-Sep-17 16:58N 59°20' E 018°05'0 0.0
2017-Sep-17 16:28N 59°20' E 018°05'0 0.0
2017-Sep-17 15:58N 59°20' E 018°05'0 0.0
2017-Sep-17 15:22N 59°20' E 018°05'0 0.0
2017-Sep-17 14:52N 59°20' E 018°05'0 0.0
2017-Sep-17 14:28N 59°20' E 018°05'0 0.0
2017-Sep-17 13:58N 59°20' E 018°05'0 0.0
2017-Sep-17 13:28N 59°20' E 018°05'0 0.0
2017-Sep-17 12:58N 59°20' E 018°05'0 0.0
2017-Sep-17 12:28N 59°20' E 018°05'0 0.0
2017-Sep-17 11:58N 59°20' E 018°05'0 0.0
2017-Sep-17 11:28N 59°20' E 018°05'0 0.0
2017-Sep-17 10:58N 59°20' E 018°05'0 0.0
2017-Sep-17 10:28N 59°20' E 018°05'0 0.0
2017-Sep-17 09:58N 59°20' E 018°05'0 0.0
2017-Sep-17 09:28N 59°20' E 018°05'0 0.0
2017-Sep-17 08:58N 59°20' E 018°05'0 0.0
2017-Sep-17 08:28N 59°20' E 018°05'0 0.0
2017-Sep-17 07:58N 59°20' E 018°05'0 0.0
2017-Sep-17 07:28N 59°20' E 018°05'0 0.0
2017-Sep-17 06:58N 59°20' E 018°05'0 0.0
2017-Sep-17 06:28N 59°20' E 018°05'0 0.0
2017-Sep-17 05:58N 59°20' E 018°05'0 0.0
2017-Sep-17 05:28N 59°20' E 018°05'0 0.0
2017-Sep-17 04:52N 59°20' E 018°05'0 0.0
2017-Sep-17 04:28N 59°20' E 018°05'0 0.0
2017-Sep-17 03:58N 59°20' E 018°05'0 0.0
2017-Sep-17 03:28N 59°20' E 018°05'0 0.0
2017-Sep-17 02:58N 59°20' E 018°05'0 0.0
2017-Sep-17 02:28N 59°20' E 018°05'0 0.0
2017-Sep-17 01:58N 59°20' E 018°05'0 0.0
2017-Sep-17 01:28N 59°20' E 018°05'0 0.0
2017-Sep-17 00:52N 59°20' E 018°05'0 0.0
2017-Sep-17 00:28N 59°20' E 018°05'0 0.0
2017-Sep-16 23:58N 59°20' E 018°05'0 0.0
2017-Sep-16 23:28N 59°20' E 018°05'0 0.0
2017-Sep-16 22:58N 59°20' E 018°05'0 0.0
2017-Sep-16 22:28N 59°20' E 018°05'0 0.0
2017-Sep-16 21:58N 59°20' E 018°05'0 0.0
2017-Sep-16 21:28N 59°20' E 018°05'0 0.0
2017-Sep-16 20:58N 59°20' E 018°05'0 0.0
2017-Sep-16 20:28N 59°20' E 018°05'0 0.0
2017-Sep-16 19:58N 59°20' E 018°05'0 0.0
2017-Sep-16 19:28N 59°20' E 018°05'0 0.0
2017-Sep-16 18:58N 59°20' E 018°05'0 0.0
2017-Sep-16 18:28N 59°20' E 018°05'0 0.0
2017-Sep-16 17:58N 59°20' E 018°05'0 0.0
2017-Sep-16 17:28N 59°20' E 018°05'0 0.0
2017-Sep-16 16:58N 59°20' E 018°05'0 0.6
2017-Sep-16 16:30N 59°20' E 018°05'611.1
2017-Sep-16 16:00N 59°22' E 018°16'4 0.5
2017-Sep-16 08:05N 59°24' E 018°21'0 0.7
2017-Sep-16 08:00N 59°24' E 018°21'5 9.1
2017-Sep-16 07:30N 59°21' E 018°15'  

Dump ship's entire track history